sensor_id;sensor_type;location;lat;lon;timestamp;temperature;humidity
83102;SHT31;72973;51.784;4.660;2023-11-19T00:01:55;15.05;84.75
83102;SHT31;72973;51.784;4.660;2023-11-19T00:04:31;15.02;84.54
83102;SHT31;72973;51.784;4.660;2023-11-19T00:07:06;15.03;84.69
83102;SHT31;72973;51.784;4.660;2023-11-19T00:09:35;15.08;84.62
83102;SHT31;72973;51.784;4.660;2023-11-19T00:12:07;15.03;84.55
83102;SHT31;72973;51.784;4.660;2023-11-19T00:14:36;15.00;84.45
83102;SHT31;72973;51.784;4.660;2023-11-19T00:17:08;15.00;84.49
83102;SHT31;72973;51.784;4.660;2023-11-19T00:19:37;14.93;84.60
83102;SHT31;72973;51.784;4.660;2023-11-19T00:22:12;14.89;84.60
83102;SHT31;72973;51.784;4.660;2023-11-19T00:24:43;14.91;84.51
83102;SHT31;72973;51.784;4.660;2023-11-19T00:27:15;14.91;84.58
83102;SHT31;72973;51.784;4.660;2023-11-19T00:29:42;14.87;84.60
83102;SHT31;72973;51.784;4.660;2023-11-19T00:34:43;14.88;84.45
83102;SHT31;72973;51.784;4.660;2023-11-19T00:39:38;14.89;84.29
83102;SHT31;72973;51.784;4.660;2023-11-19T00:42:10;14.93;84.07
83102;SHT31;72973;51.784;4.660;2023-11-19T00:44:48;14.89;83.92
83102;SHT31;72973;51.784;4.660;2023-11-19T00:47:19;14.96;83.79
83102;SHT31;72973;51.784;4.660;2023-11-19T00:49:51;14.88;83.63
83102;SHT31;72973;51.784;4.660;2023-11-19T00:52:41;14.85;83.81
83102;SHT31;72973;51.784;4.660;2023-11-19T00:57:37;14.84;83.72
83102;SHT31;72973;51.784;4.660;2023-11-19T01:00:07;14.74;83.81
83102;SHT31;72973;51.784;4.660;2023-11-19T01:02:46;14.77;83.48
83102;SHT31;72973;51.784;4.660;2023-11-19T01:05:13;14.71;83.51
83102;SHT31;72973;51.784;4.660;2023-11-19T01:07:46;14.68;83.51
83102;SHT31;72973;51.784;4.660;2023-11-19T01:10:16;14.70;83.35
83102;SHT31;72973;51.784;4.660;2023-11-19T01:12:44;14.71;82.94
83102;SHT31;72973;51.784;4.660;2023-11-19T01:15:18;14.65;82.96
83102;SHT31;72973;51.784;4.660;2023-11-19T01:17:48;14.65;82.87
83102;SHT31;72973;51.784;4.660;2023-11-19T01:20:18;14.57;82.78
83102;SHT31;72973;51.784;4.660;2023-11-19T01:22:50;14.57;82.62
83102;SHT31;72973;51.784;4.660;2023-11-19T01:25:19;14.48;82.66
83102;SHT31;72973;51.784;4.660;2023-11-19T01:27:49;14.50;82.60
83102;SHT31;72973;51.784;4.660;2023-11-19T01:30:19;14.40;82.73
83102;SHT31;72973;51.784;4.660;2023-11-19T01:32:48;14.37;82.70
83102;SHT31;72973;51.784;4.660;2023-11-19T01:35:25;14.33;82.72
83102;SHT31;72973;51.784;4.660;2023-11-19T01:38:04;14.30;82.77
83102;SHT31;72973;51.784;4.660;2023-11-19T01:40:33;14.24;82.72
83102;SHT31;72973;51.784;4.660;2023-11-19T01:43:03;14.14;82.90
83102;SHT31;72973;51.784;4.660;2023-11-19T01:45:36;14.09;82.97
83102;SHT31;72973;51.784;4.660;2023-11-19T01:48:04;14.06;82.93
83102;SHT31;72973;51.784;4.660;2023-11-19T01:50:34;14.05;82.80
83102;SHT31;72973;51.784;4.660;2023-11-19T01:53:01;14.03;82.71
83102;SHT31;72973;51.784;4.660;2023-11-19T01:55:29;14.02;82.72
83102;SHT31;72973;51.784;4.660;2023-11-19T01:58:18;13.95;82.81
83102;SHT31;72973;51.784;4.660;2023-11-19T02:00:50;13.96;82.82
83102;SHT31;72973;51.784;4.660;2023-11-19T02:03:19;13.89;82.83
83102;SHT31;72973;51.784;4.660;2023-11-19T02:05:49;13.93;82.91
83102;SHT31;72973;51.784;4.660;2023-11-19T02:08:19;13.96;82.80
83102;SHT31;72973;51.784;4.660;2023-11-19T02:10:49;13.92;82.93
83102;SHT31;72973;51.784;4.660;2023-11-19T02:13:22;13.95;82.80
83102;SHT31;72973;51.784;4.660;2023-11-19T02:15:52;13.89;83.05
83102;SHT31;72973;51.784;4.660;2023-11-19T02:18:27;13.90;82.97
83102;SHT31;72973;51.784;4.660;2023-11-19T02:20:59;13.81;83.14
83102;SHT31;72973;51.784;4.660;2023-11-19T02:23:31;13.90;82.85
83102;SHT31;72973;51.784;4.660;2023-11-19T02:28:50;13.78;83.09
83102;SHT31;72973;51.784;4.660;2023-11-19T02:31:20;13.78;82.85
83102;SHT31;72973;51.784;4.660;2023-11-19T02:33:54;13.78;82.81
83102;SHT31;72973;51.784;4.660;2023-11-19T02:36:22;13.72;82.87
83102;SHT31;72973;51.784;4.660;2023-11-19T02:38:51;13.68;82.92
83102;SHT31;72973;51.784;4.660;2023-11-19T02:41:20;13.68;82.85
83102;SHT31;72973;51.784;4.660;2023-11-19T02:43:49;13.64;82.87
83102;SHT31;72973;51.784;4.660;2023-11-19T02:46:16;13.65;82.82
83102;SHT31;72973;51.784;4.660;2023-11-19T02:48:47;13.64;82.73
83102;SHT31;72973;51.784;4.660;2023-11-19T02:51:18;13.58;82.75
83102;SHT31;72973;51.784;4.660;2023-11-19T02:53:58;13.57;82.70
83102;SHT31;72973;51.784;4.660;2023-11-19T02:56:25;13.57;82.58
83102;SHT31;72973;51.784;4.660;2023-11-19T02:58:54;13.54;82.54
83102;SHT31;72973;51.784;4.660;2023-11-19T03:01:25;13.51;82.58
83102;SHT31;72973;51.784;4.660;2023-11-19T03:04:12;13.51;82.37
83102;SHT31;72973;51.784;4.660;2023-11-19T03:06:49;13.45;82.40
83102;SHT31;72973;51.784;4.660;2023-11-19T03:09:18;13.40;82.35
83102;SHT31;72973;51.784;4.660;2023-11-19T03:11:47;13.41;82.07
83102;SHT31;72973;51.784;4.660;2023-11-19T03:14:15;13.44;81.83
83102;SHT31;72973;51.784;4.660;2023-11-19T03:16:49;13.36;81.91
83102;SHT31;72973;51.784;4.660;2023-11-19T03:19:19;13.36;81.74
83102;SHT31;72973;51.784;4.660;2023-11-19T03:21:48;13.31;81.71
83102;SHT31;72973;51.784;4.660;2023-11-19T03:24:19;13.27;81.79
83102;SHT31;72973;51.784;4.660;2023-11-19T03:26:51;13.33;81.64
83102;SHT31;72973;51.784;4.660;2023-11-19T03:29:23;13.27;81.54
83102;SHT31;72973;51.784;4.660;2023-11-19T03:31:54;13.27;81.44
83102;SHT31;72973;51.784;4.660;2023-11-19T03:34:23;13.26;81.40
83102;SHT31;72973;51.784;4.660;2023-11-19T03:37:04;13.27;81.14
83102;SHT31;72973;51.784;4.660;2023-11-19T03:39:31;13.26;81.13
83102;SHT31;72973;51.784;4.660;2023-11-19T03:41:58;13.27;81.52
83102;SHT31;72973;51.784;4.660;2023-11-19T03:44:28;13.24;81.73
83102;SHT31;72973;51.784;4.660;2023-11-19T03:49:37;13.20;82.20
83102;SHT31;72973;51.784;4.660;2023-11-19T03:52:08;13.23;82.00
83102;SHT31;72973;51.784;4.660;2023-11-19T03:54:37;13.21;82.08
83102;SHT31;72973;51.784;4.660;2023-11-19T03:57:08;13.21;81.85
83102;SHT31;72973;51.784;4.660;2023-11-19T03:59:39;13.17;81.75
83102;SHT31;72973;51.784;4.660;2023-11-19T04:02:06;13.20;81.57
83102;SHT31;72973;51.784;4.660;2023-11-19T04:04:36;13.18;81.62
83102;SHT31;72973;51.784;4.660;2023-11-19T04:07:07;13.17;81.68
83102;SHT31;72973;51.784;4.660;2023-11-19T04:09:36;13.21;81.39
83102;SHT31;72973;51.784;4.660;2023-11-19T04:12:08;13.24;81.29
83102;SHT31;72973;51.784;4.660;2023-11-19T04:14:47;13.17;81.39
83102;SHT31;72973;51.784;4.660;2023-11-19T04:17:15;13.14;81.54
83102;SHT31;72973;51.784;4.660;2023-11-19T04:19:47;13.14;81.55
83102;SHT31;72973;51.784;4.660;2023-11-19T04:22:15;13.14;81.50
83102;SHT31;72973;51.784;4.660;2023-11-19T04:24:45;13.14;81.50
83102;SHT31;72973;51.784;4.660;2023-11-19T04:27:15;13.09;81.47
83102;SHT31;72973;51.784;4.660;2023-11-19T04:29:44;13.10;81.21
83102;SHT31;72973;51.784;4.660;2023-11-19T04:32:14;13.03;81.23
83102;SHT31;72973;51.784;4.660;2023-11-19T04:34:41;13.04;81.01
83102;SHT31;72973;51.784;4.660;2023-11-19T04:37:09;13.02;80.87
83102;SHT31;72973;51.784;4.660;2023-11-19T04:39:35;13.04;80.66
83102;SHT31;72973;51.784;4.660;2023-11-19T04:44:36;13.06;80.71
83102;SHT31;72973;51.784;4.660;2023-11-19T04:47:06;13.03;80.88
83102;SHT31;72973;51.784;4.660;2023-11-19T04:49:39;13.07;80.80
83102;SHT31;72973;51.784;4.660;2023-11-19T04:52:07;13.00;80.91
83102;SHT31;72973;51.784;4.660;2023-11-19T04:54:36;13.00;81.02
83102;SHT31;72973;51.784;4.660;2023-11-19T04:59:35;13.00;80.81
83102;SHT31;72973;51.784;4.660;2023-11-19T05:02:04;13.06;80.72
83102;SHT31;72973;51.784;4.660;2023-11-19T05:04:33;13.03;80.72
83102;SHT31;72973;51.784;4.660;2023-11-19T05:07:03;13.00;80.93
83102;SHT31;72973;51.784;4.660;2023-11-19T05:09:32;12.96;81.06
83102;SHT31;72973;51.784;4.660;2023-11-19T05:12:00;12.99;80.97
83102;SHT31;72973;51.784;4.660;2023-11-19T05:14:30;13.03;81.08
83102;SHT31;72973;51.784;4.660;2023-11-19T05:16:59;13.02;81.24
83102;SHT31;72973;51.784;4.660;2023-11-19T05:19:27;12.96;81.43
83102;SHT31;72973;51.784;4.660;2023-11-19T05:21:56;12.95;81.57
83102;SHT31;72973;51.784;4.660;2023-11-19T05:24:28;12.90;81.85
83102;SHT31;72973;51.784;4.660;2023-11-19T05:26:55;12.92;81.93
83102;SHT31;72973;51.784;4.660;2023-11-19T05:29:25;12.93;81.85
83102;SHT31;72973;51.784;4.660;2023-11-19T05:31:52;12.90;81.84
83102;SHT31;72973;51.784;4.660;2023-11-19T05:34:24;12.97;81.71
83102;SHT31;72973;51.784;4.660;2023-11-19T05:36:53;12.90;81.76
83102;SHT31;72973;51.784;4.660;2023-11-19T05:39:21;12.86;81.79
83102;SHT31;72973;51.784;4.660;2023-11-19T05:41:51;12.90;81.77
83102;SHT31;72973;51.784;4.660;2023-11-19T05:44:24;12.86;81.60
83102;SHT31;72973;51.784;4.660;2023-11-19T05:46:54;12.89;81.38
83102;SHT31;72973;51.784;4.660;2023-11-19T05:49:26;12.88;81.26
83102;SHT31;72973;51.784;4.660;2023-11-19T05:51:54;12.89;81.22
83102;SHT31;72973;51.784;4.660;2023-11-19T05:54:26;12.89;81.14
83102;SHT31;72973;51.784;4.660;2023-11-19T05:56:58;12.90;81.06
83102;SHT31;72973;51.784;4.660;2023-11-19T05:59:26;12.82;81.32
83102;SHT31;72973;51.784;4.660;2023-11-19T06:02:02;12.86;81.14
83102;SHT31;72973;51.784;4.660;2023-11-19T06:04:34;12.80;81.29
83102;SHT31;72973;51.784;4.660;2023-11-19T06:07:00;12.82;81.23
83102;SHT31;72973;51.784;4.660;2023-11-19T06:09:32;12.82;81.39
83102;SHT31;72973;51.784;4.660;2023-11-19T06:12:02;12.73;81.64
83102;SHT31;72973;51.784;4.660;2023-11-19T06:14:32;12.69;81.77
83102;SHT31;72973;51.784;4.660;2023-11-19T06:17:03;12.65;81.89
83102;SHT31;72973;51.784;4.660;2023-11-19T06:19:42;12.58;82.13
83102;SHT31;72973;51.784;4.660;2023-11-19T06:22:10;12.59;82.11
83102;SHT31;72973;51.784;4.660;2023-11-19T06:24:42;12.58;82.16
83102;SHT31;72973;51.784;4.660;2023-11-19T06:27:17;12.56;82.18
83102;SHT31;72973;51.784;4.660;2023-11-19T06:29:47;12.58;82.07
83102;SHT31;72973;51.784;4.660;2023-11-19T06:32:16;12.56;82.04
83102;SHT31;72973;51.784;4.660;2023-11-19T06:34:47;12.55;81.90
83102;SHT31;72973;51.784;4.660;2023-11-19T06:37:19;12.51;81.97
83102;SHT31;72973;51.784;4.660;2023-11-19T06:42:48;12.51;81.79
83102;SHT31;72973;51.784;4.660;2023-11-19T06:45:17;12.51;81.60
83102;SHT31;72973;51.784;4.660;2023-11-19T06:47:56;12.52;81.63
83102;SHT31;72973;51.784;4.660;2023-11-19T06:50:23;12.53;81.48
83102;SHT31;72973;51.784;4.660;2023-11-19T06:52:50;12.49;81.56
83102;SHT31;72973;51.784;4.660;2023-11-19T06:55:19;12.49;81.66
83102;SHT31;72973;51.784;4.660;2023-11-19T06:57:47;12.49;81.56
83102;SHT31;72973;51.784;4.660;2023-11-19T07:00:15;12.52;81.52
83102;SHT31;72973;51.784;4.660;2023-11-19T07:02:48;12.61;81.21
83102;SHT31;72973;51.784;4.660;2023-11-19T07:05:30;12.58;81.16
83102;SHT31;72973;51.784;4.660;2023-11-19T07:08:00;12.56;81.16
83102;SHT31;72973;51.784;4.660;2023-11-19T07:10:33;12.55;81.20
83102;SHT31;72973;51.784;4.660;2023-11-19T07:13:02;12.52;81.11
83102;SHT31;72973;51.784;4.660;2023-11-19T07:15:38;12.52;81.09
83102;SHT31;72973;51.784;4.660;2023-11-19T07:18:08;12.48;81.18
83102;SHT31;72973;51.784;4.660;2023-11-19T07:20:36;12.52;81.06
83102;SHT31;72973;51.784;4.660;2023-11-19T07:23:06;12.52;81.06
83102;SHT31;72973;51.784;4.660;2023-11-19T07:25:38;12.45;81.10
83102;SHT31;72973;51.784;4.660;2023-11-19T07:28:05;12.46;81.25
83102;SHT31;72973;51.784;4.660;2023-11-19T07:30:58;12.45;81.12
83102;SHT31;72973;51.784;4.660;2023-11-19T07:33:29;12.51;81.06
83102;SHT31;72973;51.784;4.660;2023-11-19T07:38:41;12.49;81.18
83102;SHT31;72973;51.784;4.660;2023-11-19T07:41:12;12.63;80.78
83102;SHT31;72973;51.784;4.660;2023-11-19T07:48:38;12.72;80.61
83102;SHT31;72973;51.784;4.660;2023-11-19T07:53:38;12.83;80.09
83102;SHT31;72973;51.784;4.660;2023-11-19T07:58:39;12.88;79.94
83102;SHT31;72973;51.784;4.660;2023-11-19T08:01:11;12.92;79.74
83102;SHT31;72973;51.784;4.660;2023-11-19T08:03:44;12.93;79.87
83102;SHT31;72973;51.784;4.660;2023-11-19T08:08:39;13.09;79.47
83102;SHT31;72973;51.784;4.660;2023-11-19T08:11:08;13.11;79.15
83102;SHT31;72973;51.784;4.660;2023-11-19T08:13:40;13.18;79.39
83102;SHT31;72973;51.784;4.660;2023-11-19T08:16:18;13.23;78.93
83102;SHT31;72973;51.784;4.660;2023-11-19T08:18:46;13.33;78.99
83102;SHT31;72973;51.784;4.660;2023-11-19T08:21:13;13.28;78.76
83102;SHT31;72973;51.784;4.660;2023-11-19T08:24:03;13.33;78.56
83102;SHT31;72973;51.784;4.660;2023-11-19T08:26:43;13.36;78.72
83102;SHT31;72973;51.784;4.660;2023-11-19T08:29:14;13.31;78.71
83102;SHT31;72973;51.784;4.660;2023-11-19T08:31:47;13.28;78.72
83102;SHT31;72973;51.784;4.660;2023-11-19T08:36:42;13.18;78.85
83102;SHT31;72973;51.784;4.660;2023-11-19T08:39:12;13.24;78.80
83102;SHT31;72973;51.784;4.660;2023-11-19T08:41:50;13.26;78.48
83102;SHT31;72973;51.784;4.660;2023-11-19T08:44:33;13.18;78.70
83102;SHT31;72973;51.784;4.660;2023-11-19T08:47:04;13.21;78.77
83102;SHT31;72973;51.784;4.660;2023-11-19T08:49:34;13.21;78.87
83102;SHT31;72973;51.784;4.660;2023-11-19T08:52:01;13.21;78.41
83102;SHT31;72973;51.784;4.660;2023-11-19T08:54:44;13.24;78.45
83102;SHT31;72973;51.784;4.660;2023-11-19T08:57:24;13.26;78.22
83102;SHT31;72973;51.784;4.660;2023-11-19T08:59:59;13.27;78.18
83102;SHT31;72973;51.784;4.660;2023-11-19T09:02:35;13.33;78.22
83102;SHT31;72973;51.784;4.660;2023-11-19T09:05:06;13.37;78.25
83102;SHT31;72973;51.784;4.660;2023-11-19T09:07:35;13.50;77.86
83102;SHT31;72973;51.784;4.660;2023-11-19T09:10:11;13.48;77.78
83102;SHT31;72973;51.784;4.660;2023-11-19T09:12:39;13.55;77.42
83102;SHT31;72973;51.784;4.660;2023-11-19T09:15:18;13.66;77.25
83102;SHT31;72973;51.784;4.660;2023-11-19T09:17:46;13.65;77.39
83102;SHT31;72973;51.784;4.660;2023-11-19T09:20:32;13.64;77.67
83102;SHT31;72973;51.784;4.660;2023-11-19T09:23:05;13.58;77.57
83102;SHT31;72973;51.784;4.660;2023-11-19T09:25:41;13.66;77.47
83102;SHT31;72973;51.784;4.660;2023-11-19T09:28:22;13.69;77.62
83102;SHT31;72973;51.784;4.660;2023-11-19T09:30:50;13.66;77.59
83102;SHT31;72973;51.784;4.660;2023-11-19T09:33:43;13.72;77.61
83102;SHT31;72973;51.784;4.660;2023-11-19T09:36:59;13.61;77.81
83102;SHT31;72973;51.784;4.660;2023-11-19T09:39:52;13.68;77.71
83102;SHT31;72973;51.784;4.660;2023-11-19T09:42:26;13.68;77.88
83102;SHT31;72973;51.784;4.660;2023-11-19T09:45:21;13.75;77.47
83102;SHT31;72973;51.784;4.660;2023-11-19T09:48:09;13.89;77.10
83102;SHT31;72973;51.784;4.660;2023-11-19T09:50:52;14.06;76.69
83102;SHT31;72973;51.784;4.660;2023-11-19T09:53:36;14.12;76.63
83102;SHT31;72973;51.784;4.660;2023-11-19T09:56:05;14.08;76.83
83102;SHT31;72973;51.784;4.660;2023-11-19T09:58:33;14.13;76.49
83102;SHT31;72973;51.784;4.660;2023-11-19T10:01:05;14.20;76.47
83102;SHT31;72973;51.784;4.660;2023-11-19T10:03:40;14.22;76.24
83102;SHT31;72973;51.784;4.660;2023-11-19T10:08:42;14.14;76.75
83102;SHT31;72973;51.784;4.660;2023-11-19T10:11:36;14.14;76.61
83102;SHT31;72973;51.784;4.660;2023-11-19T10:16:48;14.30;76.58
83102;SHT31;72973;51.784;4.660;2023-11-19T10:19:25;14.30;76.60
83102;SHT31;72973;51.784;4.660;2023-11-19T10:22:15;14.34;76.06
83102;SHT31;72973;51.784;4.660;2023-11-19T10:25:04;14.38;76.08
83102;SHT31;72973;51.784;4.660;2023-11-19T10:27:55;14.34;75.79
83102;SHT31;72973;51.784;4.660;2023-11-19T10:30:31;14.48;75.73
83102;SHT31;72973;51.784;4.660;2023-11-19T10:33:13;14.56;75.66
83102;SHT31;72973;51.784;4.660;2023-11-19T10:35:56;14.78;75.36
83102;SHT31;72973;51.784;4.660;2023-11-19T10:38:29;14.91;74.66
83102;SHT31;72973;51.784;4.660;2023-11-19T10:40:59;14.85;74.25
83102;SHT31;72973;51.784;4.660;2023-11-19T10:43:31;14.82;74.61
83102;SHT31;72973;51.784;4.660;2023-11-19T10:48:36;15.02;73.97
83102;SHT31;72973;51.784;4.660;2023-11-19T10:51:28;15.25;73.39
83102;SHT31;72973;51.784;4.660;2023-11-19T10:54:05;15.30;73.07
83102;SHT31;72973;51.784;4.660;2023-11-19T10:56:34;15.27;73.89
83102;SHT31;72973;51.784;4.660;2023-11-19T11:01:44;15.32;72.93
83102;SHT31;72973;51.784;4.660;2023-11-19T11:04:25;15.20;73.36
83102;SHT31;72973;51.784;4.660;2023-11-19T11:07:01;14.95;73.60
83102;SHT31;72973;51.784;4.660;2023-11-19T11:09:34;14.99;73.87
83102;SHT31;72973;51.784;4.660;2023-11-19T11:12:24;15.08;73.19
83102;SHT31;72973;51.784;4.660;2023-11-19T11:14:58;15.09;73.50
83102;SHT31;72973;51.784;4.660;2023-11-19T11:17:33;15.42;72.53
83102;SHT31;72973;51.784;4.660;2023-11-19T11:20:08;15.27;73.08
83102;SHT31;72973;51.784;4.660;2023-11-19T11:36:38;15.49;72.79
83102;SHT31;72973;51.784;4.660;2023-11-19T11:39:03;15.57;72.91
83102;SHT31;72973;51.784;4.660;2023-11-19T11:41:36;15.46;73.18
83102;SHT31;72973;51.784;4.660;2023-11-19T11:44:18;15.16;74.49
83102;SHT31;72973;51.784;4.660;2023-11-19T11:47:09;15.23;74.05
83102;SHT31;72973;51.784;4.660;2023-11-19T11:49:36;15.20;74.25
83102;SHT31;72973;51.784;4.660;2023-11-19T11:52:07;15.08;74.36
83102;SHT31;72973;51.784;4.660;2023-11-19T11:54:42;15.10;74.72
83102;SHT31;72973;51.784;4.660;2023-11-19T11:57:12;15.13;74.95
83102;SHT31;72973;51.784;4.660;2023-11-19T11:59:51;14.99;74.88
83102;SHT31;72973;51.784;4.660;2023-11-19T12:02:27;15.02;75.02
83102;SHT31;72973;51.784;4.660;2023-11-19T12:04:57;14.95;75.35
83102;SHT31;72973;51.784;4.660;2023-11-19T12:07:40;14.82;75.85
83102;SHT31;72973;51.784;4.660;2023-11-19T12:10:48;14.75;75.72
83102;SHT31;72973;51.784;4.660;2023-11-19T12:14:02;14.85;76.06
83102;SHT31;72973;51.784;4.660;2023-11-19T12:16:31;15.02;75.53
83102;SHT31;72973;51.784;4.660;2023-11-19T12:19:05;14.96;75.46
83102;SHT31;72973;51.784;4.660;2023-11-19T12:21:37;14.98;75.32
83102;SHT31;72973;51.784;4.660;2023-11-19T12:24:23;15.16;75.14
83102;SHT31;72973;51.784;4.660;2023-11-19T12:26:55;15.25;74.79
83102;SHT31;72973;51.784;4.660;2023-11-19T12:29:24;15.37;74.62
83102;SHT31;72973;51.784;4.660;2023-11-19T12:31:56;15.40;74.64
83102;SHT31;72973;51.784;4.660;2023-11-19T12:34:41;15.22;75.16
83102;SHT31;72973;51.784;4.660;2023-11-19T12:39:38;15.18;75.41
83102;SHT31;72973;51.784;4.660;2023-11-19T12:42:06;15.16;74.80
83102;SHT31;72973;51.784;4.660;2023-11-19T12:44:35;15.20;74.69
83102;SHT31;72973;51.784;4.660;2023-11-19T12:47:08;15.18;74.54
83102;SHT31;72973;51.784;4.660;2023-11-19T12:49:55;15.22;73.86
83102;SHT31;72973;51.784;4.660;2023-11-19T12:52:24;15.26;74.14
83102;SHT31;72973;51.784;4.660;2023-11-19T12:54:55;15.32;74.32
83102;SHT31;72973;51.784;4.660;2023-11-19T12:57:43;15.56;74.28
83102;SHT31;72973;51.784;4.660;2023-11-19T13:00:24;15.64;73.33
83102;SHT31;72973;51.784;4.660;2023-11-19T13:02:58;15.37;74.24
83102;SHT31;72973;51.784;4.660;2023-11-19T13:05:33;15.35;74.55
83102;SHT31;72973;51.784;4.660;2023-11-19T13:08:08;15.44;74.11
83102;SHT31;72973;51.784;4.660;2023-11-19T13:10:56;15.64;73.83
83102;SHT31;72973;51.784;4.660;2023-11-19T13:13:59;15.53;73.55
83102;SHT31;72973;51.784;4.660;2023-11-19T13:17:08;15.49;73.70
83102;SHT31;72973;51.784;4.660;2023-11-19T13:19:39;15.42;73.34
83102;SHT31;72973;51.784;4.660;2023-11-19T13:22:57;15.18;73.51
83102;SHT31;72973;51.784;4.660;2023-11-19T13:27:53;14.96;74.01
83102;SHT31;72973;51.784;4.660;2023-11-19T13:30:32;14.98;73.93
83102;SHT31;72973;51.784;4.660;2023-11-19T13:33:25;14.99;73.71
83102;SHT31;72973;51.784;4.660;2023-11-19T13:35:57;14.96;73.69
83102;SHT31;72973;51.784;4.660;2023-11-19T13:38:33;14.81;74.08
83102;SHT31;72973;51.784;4.660;2023-11-19T13:41:16;14.87;74.17
83102;SHT31;72973;51.784;4.660;2023-11-19T13:46:33;14.88;73.81
83102;SHT31;72973;51.784;4.660;2023-11-19T13:51:35;14.88;74.06
83102;SHT31;72973;51.784;4.660;2023-11-19T13:57:04;14.64;74.58
83102;SHT31;72973;51.784;4.660;2023-11-19T14:01:59;14.68;74.75
83102;SHT31;72973;51.784;4.660;2023-11-19T14:04:29;14.70;74.68
83102;SHT31;72973;51.784;4.660;2023-11-19T14:06:58;14.74;74.25
83102;SHT31;72973;51.784;4.660;2023-11-19T14:09:27;14.74;74.24
83102;SHT31;72973;51.784;4.660;2023-11-19T14:12:02;14.81;73.34
83102;SHT31;72973;51.784;4.660;2023-11-19T14:14:31;14.82;73.33
83102;SHT31;72973;51.784;4.660;2023-11-19T14:17:02;14.85;73.08
83102;SHT31;72973;51.784;4.660;2023-11-19T14:19:32;14.87;72.40
83102;SHT31;72973;51.784;4.660;2023-11-19T14:22:05;14.99;72.09
83102;SHT31;72973;51.784;4.660;2023-11-19T14:24:34;14.95;71.56
83102;SHT31;72973;51.784;4.660;2023-11-19T14:27:05;14.91;71.56
83102;SHT31;72973;51.784;4.660;2023-11-19T14:29:38;15.03;71.02
83102;SHT31;72973;51.784;4.660;2023-11-19T14:32:09;14.95;70.90
83102;SHT31;72973;51.784;4.660;2023-11-19T14:34:47;15.08;70.83
83102;SHT31;72973;51.784;4.660;2023-11-19T14:37:21;15.06;70.91
83102;SHT31;72973;51.784;4.660;2023-11-19T14:39:50;15.08;71.11
83102;SHT31;72973;51.784;4.660;2023-11-19T14:42:18;15.00;71.23
83102;SHT31;72973;51.784;4.660;2023-11-19T14:44:48;14.93;71.64
83102;SHT31;72973;51.784;4.660;2023-11-19T14:47:24;14.89;71.97
83102;SHT31;72973;51.784;4.660;2023-11-19T14:50:00;14.91;72.08
83102;SHT31;72973;51.784;4.660;2023-11-19T14:52:36;14.92;72.16
83102;SHT31;72973;51.784;4.660;2023-11-19T14:55:07;14.99;72.36
83102;SHT31;72973;51.784;4.660;2023-11-19T14:57:45;14.98;72.41
83102;SHT31;72973;51.784;4.660;2023-11-19T15:00:17;14.93;72.41
83102;SHT31;72973;51.784;4.660;2023-11-19T15:02:47;14.87;72.02
83102;SHT31;72973;51.784;4.660;2023-11-19T15:05:17;14.75;72.40
83102;SHT31;72973;51.784;4.660;2023-11-19T15:07:44;14.75;72.69
83102;SHT31;72973;51.784;4.660;2023-11-19T15:10:26;14.71;73.07
83102;SHT31;72973;51.784;4.660;2023-11-19T15:13:08;14.57;73.52
83102;SHT31;72973;51.784;4.660;2023-11-19T15:15:37;14.44;74.06
83102;SHT31;72973;51.784;4.660;2023-11-19T15:18:05;14.34;74.19
83102;SHT31;72973;51.784;4.660;2023-11-19T15:20:38;14.24;74.48
83102;SHT31;72973;51.784;4.660;2023-11-19T15:25:42;14.20;74.77
83102;SHT31;72973;51.784;4.660;2023-11-19T15:30:48;14.24;74.79
83102;SHT31;72973;51.784;4.660;2023-11-19T15:33:19;14.24;75.02
83102;SHT31;72973;51.784;4.660;2023-11-19T15:35:51;14.13;76.15
83102;SHT31;72973;51.784;4.660;2023-11-19T15:38:36;13.98;76.70
83102;SHT31;72973;51.784;4.660;2023-11-19T15:43:35;14.09;77.18
83102;SHT31;72973;51.784;4.660;2023-11-19T15:48:36;13.85;78.40
83102;SHT31;72973;51.784;4.660;2023-11-19T15:53:39;13.62;79.96
83102;SHT31;72973;51.784;4.660;2023-11-19T15:58:41;13.41;81.43
83102;SHT31;72973;51.784;4.660;2023-11-19T16:03:36;13.24;82.09
83102;SHT31;72973;51.784;4.660;2023-11-19T16:06:04;13.27;82.21
83102;SHT31;72973;51.784;4.660;2023-11-19T16:08:44;13.30;81.87
83102;SHT31;72973;51.784;4.660;2023-11-19T16:11:15;13.26;81.78
83102;SHT31;72973;51.784;4.660;2023-11-19T16:13:47;13.27;81.58
83102;SHT31;72973;51.784;4.660;2023-11-19T16:16:16;13.24;81.61
83102;SHT31;72973;51.784;4.660;2023-11-19T16:18:46;13.26;82.08
83102;SHT31;72973;51.784;4.660;2023-11-19T16:21:21;13.28;81.88
83102;SHT31;72973;51.784;4.660;2023-11-19T16:23:52;13.18;82.41
83102;SHT31;72973;51.784;4.660;2023-11-19T16:26:26;13.21;82.48
83102;SHT31;72973;51.784;4.660;2023-11-19T16:29:10;13.16;82.67
83102;SHT31;72973;51.784;4.660;2023-11-19T16:31:50;13.17;82.80
83102;SHT31;72973;51.784;4.660;2023-11-19T16:34:21;13.20;82.66
83102;SHT31;72973;51.784;4.660;2023-11-19T16:36:51;13.18;82.74
83102;SHT31;72973;51.784;4.660;2023-11-19T16:39:21;13.17;82.95
83102;SHT31;72973;51.784;4.660;2023-11-19T16:41:49;13.10;83.30
83102;SHT31;72973;51.784;4.660;2023-11-19T16:44:18;13.03;83.68
83102;SHT31;72973;51.784;4.660;2023-11-19T16:46:46;12.99;84.16
83102;SHT31;72973;51.784;4.660;2023-11-19T16:49:20;12.97;84.32
83102;SHT31;72973;51.784;4.660;2023-11-19T16:51:50;12.93;84.30
83102;SHT31;72973;51.784;4.660;2023-11-19T16:54:23;12.93;84.33
83102;SHT31;72973;51.784;4.660;2023-11-19T16:56:56;12.95;84.27
83102;SHT31;72973;51.784;4.660;2023-11-19T16:59:32;12.95;84.09
83102;SHT31;72973;51.784;4.660;2023-11-19T17:02:03;12.92;84.42
83102;SHT31;72973;51.784;4.660;2023-11-19T17:04:34;12.93;84.44
83102;SHT31;72973;51.784;4.660;2023-11-19T17:07:11;13.00;84.31
83102;SHT31;72973;51.784;4.660;2023-11-19T17:10:05;12.97;84.62
83102;SHT31;72973;51.784;4.660;2023-11-19T17:12:39;12.97;84.55
83102;SHT31;72973;51.784;4.660;2023-11-19T17:15:19;12.97;84.61
83102;SHT31;72973;51.784;4.660;2023-11-19T17:17:48;12.99;84.52
83102;SHT31;72973;51.784;4.660;2023-11-19T17:20:20;12.99;84.67
83102;SHT31;72973;51.784;4.660;2023-11-19T17:22:57;13.04;84.09
83102;SHT31;72973;51.784;4.660;2023-11-19T17:25:28;13.03;84.58
83102;SHT31;72973;51.784;4.660;2023-11-19T17:27:59;12.97;84.25
83102;SHT31;72973;51.784;4.660;2023-11-19T17:30:29;12.95;84.38
83102;SHT31;72973;51.784;4.660;2023-11-19T17:32:58;12.93;84.55
83102;SHT31;72973;51.784;4.660;2023-11-19T17:35:29;12.90;84.59
83102;SHT31;72973;51.784;4.660;2023-11-19T17:38:11;12.97;84.64
83102;SHT31;72973;51.784;4.660;2023-11-19T17:40:40;12.97;84.61
83102;SHT31;72973;51.784;4.660;2023-11-19T17:43:10;12.92;84.45
83102;SHT31;72973;51.784;4.660;2023-11-19T17:45:38;12.97;84.53